createdAt,value
2022-09-13T00:00:53.572Z,73.83
2022-09-13T00:02:55.036Z,73.58
2022-09-13T00:04:56.497Z,73.50
2022-09-13T00:06:58.036Z,73.87
2022-09-13T00:09:01.411Z,73.17
2022-09-13T00:11:03.730Z,73.57
2022-09-13T00:13:06.669Z,73.56
2022-09-13T00:15:08.907Z,73.36
2022-09-13T00:17:10.355Z,73.90
2022-09-13T00:19:11.852Z,73.89
2022-09-13T00:21:16.381Z,73.86
2022-09-13T00:23:17.817Z,73.96
2022-09-13T00:25:19.380Z,73.92
2022-09-13T00:27:20.812Z,74.02
2022-09-13T00:29:22.255Z,74.13
2022-09-13T00:31:26.380Z,74.46
2022-09-13T00:33:27.950Z,74.66
2022-09-13T00:35:29.426Z,75.23
2022-09-13T00:37:33.297Z,75.82
2022-09-13T00:39:35.366Z,76.23
2022-09-13T00:41:36.915Z,77.49
2022-09-13T00:43:50.481Z,78.03
2022-09-13T00:45:52.014Z,79.33
2022-09-13T00:47:59.668Z,80.34
2022-09-13T00:50:19.367Z,81.58
2022-09-13T00:52:24.091Z,82.46
2022-09-13T00:54:29.385Z,83.36
2022-09-13T00:56:36.505Z,84.13
2022-09-13T00:58:44.045Z,84.85
2022-09-13T01:00:46.278Z,85.67
2022-09-13T01:02:53.259Z,86.52
2022-09-13T01:04:55.291Z,87.05
2022-09-13T01:07:02.331Z,86.68
2022-09-13T01:09:05.425Z,85.64
2022-09-13T01:11:13.310Z,84.73
2022-09-13T01:13:26.488Z,84.98
2022-09-13T01:15:27.939Z,86.41
2022-09-13T01:17:31.027Z,87.69
2022-09-13T01:19:32.506Z,88.36
2022-09-13T01:22:12.912Z,87.94
2022-09-13T01:24:35.885Z,87.53
2022-09-13T01:27:11.438Z,88.12
2022-09-13T01:29:50.631Z,89.33
2022-09-13T01:32:41.449Z,89.50
2022-09-13T01:35:05.969Z,87.45
2022-09-13T01:37:28.859Z,87.58
2022-09-13T01:39:36.177Z,88.41
2022-09-13T01:41:50.756Z,89.78
2022-09-13T01:44:10.845Z,90.25
2022-09-13T01:46:26.417Z,90.78
2022-09-13T01:48:40.152Z,91.53
2022-09-13T01:50:47.711Z,91.68
2022-09-13T01:52:49.336Z,92.25
2022-09-13T01:55:02.693Z,92.91
2022-09-13T01:57:20.140Z,93.60
2022-09-13T01:59:37.882Z,93.91
2022-09-13T02:02:03.420Z,94.38
2022-09-13T02:04:16.949Z,94.51
2022-09-13T02:06:23.376Z,94.62
2022-09-13T02:08:45.635Z,94.84
2022-09-13T02:10:59.529Z,95.13
2022-09-13T02:13:05.482Z,95.25
2022-09-13T02:15:32.185Z,95.48
2022-09-13T02:17:39.143Z,95.45
2022-09-13T02:19:44.436Z,95.46
2022-09-13T02:21:58.849Z,95.40
2022-09-13T02:24:05.909Z,94.93
2022-09-13T02:26:12.618Z,94.56
2022-09-13T02:28:21.760Z,94.92
2022-09-13T02:30:23.406Z,95.09
2022-09-13T02:32:32.665Z,94.84
2022-09-13T02:34:40.481Z,94.79
2022-09-13T02:36:46.221Z,95.03
2022-09-13T02:39:02.021Z,94.92
2022-09-13T02:41:22.051Z,94.85
2022-09-13T02:43:31.549Z,94.17
2022-09-13T02:46:12.536Z,93.86
2022-09-13T02:48:28.799Z,93.75
2022-09-13T02:51:01.485Z,93.92
2022-09-13T02:53:18.443Z,94.08
2022-09-13T02:55:38.046Z,94.04
2022-09-13T02:57:49.047Z,94.06
2022-09-13T02:59:50.473Z,94.38
2022-09-13T03:02:01.845Z,94.59
2022-09-13T03:04:03.737Z,95.12
2022-09-13T03:06:05.828Z,95.43
2022-09-13T03:08:10.487Z,95.26
2022-09-13T03:10:14.765Z,95.37
2022-09-13T03:12:33.076Z,95.33
2022-09-13T03:14:45.858Z,95.54
2022-09-13T03:17:11.687Z,95.54
2022-09-13T03:19:22.157Z,95.77
2022-09-13T03:21:53.960Z,95.92
2022-09-13T03:24:04.369Z,96.17
2022-09-13T03:26:51.240Z,96.11
2022-09-13T03:29:10.961Z,96.05
2022-09-13T03:31:27.846Z,96.05
2022-09-13T03:33:41.005Z,96.24
2022-09-13T03:35:56.739Z,96.50
2022-09-13T03:38:15.853Z,96.69
2022-09-13T03:40:32.603Z,96.75
2022-09-13T03:42:44.308Z,96.89
2022-09-13T03:44:49.346Z,96.83
2022-09-13T03:46:57.348Z,96.82
2022-09-13T03:49:04.972Z,96.96
2022-09-13T03:51:07.544Z,96.91
2022-09-13T03:53:16.184Z,96.73
2022-09-13T03:55:21.620Z,97.40
2022-09-13T03:57:23.473Z,97.37
2022-09-13T03:59:24.967Z,97.44
2022-09-13T04:01:27.144Z,97.46
2022-09-13T04:03:28.595Z,97.79
2022-09-13T04:05:30.014Z,97.54
2022-09-13T04:07:31.446Z,97.65
2022-09-13T04:09:33.220Z,97.62
2022-09-13T04:11:34.669Z,97.81
2022-09-13T04:13:36.939Z,97.83
2022-09-13T04:15:38.344Z,97.80
2022-09-13T04:17:39.786Z,97.77
2022-09-13T04:19:41.650Z,97.78
2022-09-13T04:21:43.196Z,97.77
2022-09-13T04:23:44.655Z,97.69
2022-09-13T04:25:46.219Z,97.83
2022-09-13T04:27:48.174Z,97.79
2022-09-13T04:29:49.589Z,97.79
2022-09-13T04:31:52.801Z,97.83
2022-09-13T04:33:54.416Z,97.88
2022-09-13T04:35:59.823Z,97.68
2022-09-13T04:38:01.284Z,97.77
2022-09-13T04:40:02.864Z,97.73
2022-09-13T04:42:04.978Z,97.77
2022-09-13T04:44:06.642Z,97.81
2022-09-13T04:46:08.152Z,97.74
2022-09-13T04:48:09.659Z,97.92
2022-09-13T04:50:11.157Z,97.28
2022-09-13T04:52:12.750Z,97.66
2022-09-13T04:54:16.194Z,97.93
2022-09-13T04:56:19.596Z,98.14
2022-09-13T04:58:21.180Z,98.57
2022-09-13T05:00:22.781Z,98.56
2022-09-13T05:02:24.392Z,98.35
2022-09-13T05:04:25.955Z,98.80
2022-09-13T05:06:28.244Z,99.12
2022-09-13T05:08:29.769Z,99.02
2022-09-13T05:10:31.169Z,99.15
2022-09-13T05:12:32.697Z,99.30
2022-09-13T05:14:35.082Z,99.57
2022-09-13T05:16:36.557Z,99.56
2022-09-13T05:18:41.980Z,99.58
2022-09-13T05:20:46.162Z,99.61
2022-09-13T05:22:47.666Z,99.87
2022-09-13T05:24:49.065Z,99.72
2022-09-13T05:26:50.493Z,99.79
2022-09-13T05:28:51.995Z,99.75
2022-09-13T05:31:00.297Z,99.79
2022-09-13T05:33:01.794Z,99.84
2022-09-13T05:35:03.895Z,99.68
2022-09-13T05:37:05.546Z,99.78
2022-09-13T05:41:29.417Z,99.94
2022-09-13T05:43:33.445Z,100.00
2022-09-13T05:45:34.900Z,100.00
2022-09-13T05:47:36.315Z,100.00
2022-09-13T05:49:50.040Z,100.00
2022-09-13T05:51:59.186Z,100.00
2022-09-13T05:54:00.625Z,100.00
2022-09-13T05:56:02.467Z,100.00
2022-09-13T05:58:04.084Z,100.00
2022-09-13T06:00:06.075Z,100.00
2022-09-13T06:02:10.331Z,100.00
2022-09-13T06:04:12.604Z,100.00
2022-09-13T06:06:14.459Z,100.00
2022-09-13T06:08:16.484Z,100.00
2022-09-13T06:10:18.207Z,100.00
2022-09-13T06:12:19.931Z,100.00
2022-09-13T06:14:21.332Z,100.00
2022-09-13T06:16:23.463Z,100.00
2022-09-13T06:18:26.039Z,100.00
2022-09-13T06:20:27.492Z,100.00
2022-09-13T06:22:33.186Z,100.00
2022-09-13T06:24:37.458Z,100.00
2022-09-13T06:26:38.911Z,100.00
2022-09-13T06:28:41.019Z,100.00
2022-09-13T06:30:42.560Z,100.00
2022-09-13T06:32:43.985Z,100.00
2022-09-13T06:34:45.425Z,100.00
2022-09-13T06:36:46.856Z,100.00
2022-09-13T06:38:49.303Z,100.00
2022-09-13T06:40:59.974Z,100.00
2022-09-13T06:43:01.477Z,100.00
2022-09-13T06:45:03.292Z,100.00
2022-09-13T06:47:04.847Z,100.00
2022-09-13T06:49:07.995Z,100.00
2022-09-13T06:51:15.444Z,100.00
2022-09-13T06:53:17.092Z,100.00
2022-09-13T06:55:18.529Z,100.00
2022-09-13T06:57:20.339Z,100.00
2022-09-13T06:59:21.797Z,100.00
2022-09-13T07:01:26.163Z,100.00
2022-09-13T07:03:27.724Z,100.00
2022-09-13T07:05:29.617Z,100.00
2022-09-13T07:07:31.407Z,100.00
2022-09-13T07:09:34.296Z,100.00
2022-09-13T07:11:38.228Z,100.00
2022-09-13T07:13:40.469Z,100.00
2022-09-13T07:15:41.944Z,100.00
2022-09-13T07:17:43.486Z,100.00
2022-09-13T07:19:44.970Z,100.00
2022-09-13T07:21:46.827Z,100.00
2022-09-13T07:23:48.881Z,100.00
2022-09-13T07:26:01.909Z,100.00
2022-09-13T07:28:03.327Z,100.00
2022-09-13T07:30:05.341Z,100.00
2022-09-13T07:32:06.779Z,100.00
2022-09-13T07:34:13.092Z,100.00
2022-09-13T07:36:14.863Z,100.00
2022-09-13T07:38:16.294Z,100.00
2022-09-13T07:40:17.780Z,100.00
2022-09-13T07:42:19.252Z,100.00
2022-09-13T07:44:20.767Z,100.00
2022-09-13T07:46:24.862Z,100.00
2022-09-13T07:48:32.760Z,100.00
2022-09-13T07:50:35.272Z,100.00
2022-09-13T07:52:38.046Z,100.00
2022-09-13T07:54:39.468Z,100.00
2022-09-13T07:56:41.826Z,100.00
2022-09-13T07:58:45.261Z,100.00
2022-09-13T08:00:46.733Z,100.00
2022-09-13T08:02:48.210Z,100.00
2022-09-13T08:04:49.700Z,100.00
2022-09-13T08:06:51.213Z,100.00
2022-09-13T08:08:53.037Z,100.00
2022-09-13T08:10:54.853Z,99.94
2022-09-13T08:12:56.288Z,99.63
2022-09-13T08:14:57.748Z,99.17
2022-09-13T08:16:59.290Z,99.23
2022-09-13T08:19:03.772Z,99.16
2022-09-13T08:21:05.536Z,98.95
2022-09-13T08:23:08.147Z,98.78
2022-09-13T08:25:09.575Z,98.29
2022-09-13T08:27:13.466Z,98.24
2022-09-13T08:29:15.987Z,97.55
2022-09-13T08:31:19.844Z,97.65
2022-09-13T08:33:21.514Z,97.89
2022-09-13T08:35:22.939Z,97.83
2022-09-13T08:37:24.399Z,97.76
2022-09-13T08:39:28.225Z,97.84
2022-09-13T08:41:45.076Z,97.03
2022-09-13T08:43:59.626Z,97.42
2022-09-13T08:46:18.254Z,97.15
2022-09-13T08:48:27.697Z,96.94
2022-09-13T08:50:34.015Z,96.65
2022-09-13T08:53:16.710Z,96.50
2022-09-13T08:55:40.121Z,97.09
2022-09-13T08:57:55.358Z,97.01
2022-09-13T09:00:20.112Z,97.03
2022-09-13T09:03:00.726Z,96.73
2022-09-13T09:05:05.438Z,97.39
2022-09-13T09:07:19.009Z,97.23
2022-09-13T09:09:22.071Z,97.21
2022-09-13T09:11:28.016Z,97.47
2022-09-13T09:13:37.062Z,97.16
2022-09-13T09:15:46.240Z,97.33
2022-09-13T09:18:10.690Z,97.48
2022-09-13T09:20:32.824Z,97.28
2022-09-13T09:22:36.144Z,96.86
2022-09-13T09:24:40.317Z,95.50
2022-09-13T09:26:41.793Z,95.40
2022-09-13T09:28:47.332Z,94.60
2022-09-13T09:31:04.398Z,93.81
2022-09-13T09:33:23.993Z,92.54
2022-09-13T09:35:37.863Z,91.15
2022-09-13T09:37:40.947Z,91.43
2022-09-13T09:39:44.750Z,89.77
2022-09-13T09:41:46.324Z,87.75
2022-09-13T09:44:00.251Z,85.87
2022-09-13T09:46:03.769Z,85.51
2022-09-13T09:48:09.410Z,84.82
2022-09-13T09:50:21.532Z,85.04
2022-09-13T09:52:40.085Z,86.07
2022-09-13T09:54:41.691Z,85.64
2022-09-13T09:56:54.505Z,85.74
2022-09-13T09:58:56.139Z,84.33
2022-09-13T10:00:59.120Z,82.66
2022-09-13T10:03:04.288Z,82.97
2022-09-13T10:05:06.906Z,82.47
2022-09-13T10:07:33.244Z,82.35
2022-09-13T10:09:37.816Z,80.82
2022-09-13T10:11:51.228Z,79.15
2022-09-13T10:14:02.538Z,79.40
2022-09-13T10:16:06.396Z,78.48
2022-09-13T10:18:40.399Z,78.83
2022-09-13T10:20:39.224Z,76.42
2022-09-13T10:22:42.871Z,74.65
2022-09-13T10:24:44.518Z,73.41
2022-09-13T10:26:45.959Z,72.48
2022-09-13T10:29:07.097Z,73.28
2022-09-13T10:31:16.248Z,73.30
2022-09-13T10:33:39.073Z,70.68
2022-09-13T10:35:41.212Z,69.88
2022-09-13T10:37:45.009Z,71.03
2022-09-13T10:40:08.104Z,68.27
2022-09-13T10:42:10.741Z,68.25
2022-09-13T10:44:38.205Z,67.14
2022-09-13T10:46:40.339Z,67.88
2022-09-13T10:48:47.699Z,66.96
2022-09-13T10:51:07.763Z,62.15
2022-09-13T10:53:39.514Z,59.71
2022-09-13T10:55:42.493Z,59.33
2022-09-13T10:57:45.806Z,57.65
2022-09-13T10:59:54.787Z,56.84
2022-09-13T11:02:25.523Z,57.22
2022-09-13T11:04:41.853Z,56.05
2022-09-13T11:07:01.100Z,54.90
2022-09-13T11:09:51.812Z,54.14
2022-09-13T11:12:01.438Z,53.29
2022-09-13T11:14:36.475Z,52.46
2022-09-13T11:17:06.302Z,52.62
2022-09-13T11:19:26.403Z,52.34
2022-09-13T11:21:53.357Z,53.03
2022-09-13T11:24:08.391Z,51.70
2022-09-13T11:26:29.881Z,53.79
2022-09-13T11:29:26.037Z,54.44
2022-09-13T11:31:41.827Z,52.80
2022-09-13T11:34:05.107Z,52.17
2022-09-13T11:36:38.943Z,50.76
2022-09-13T11:38:49.354Z,49.89
2022-09-13T11:41:28.100Z,51.14
2022-09-13T11:43:39.454Z,49.86
2022-09-13T11:46:05.331Z,49.43
2022-09-13T11:48:18.414Z,49.99
2022-09-13T11:50:58.045Z,50.18
2022-09-13T11:53:02.108Z,50.14
2022-09-13T11:55:11.373Z,49.75
2022-09-13T11:57:18.409Z,49.06
2022-09-13T11:59:24.488Z,50.04
2022-09-13T12:01:36.986Z,50.39
2022-09-13T12:03:41.400Z,51.13
2022-09-13T12:05:49.203Z,51.29
2022-09-13T12:08:11.454Z,52.02
2022-09-13T12:10:23.279Z,53.50
2022-09-13T12:12:31.301Z,52.47
2022-09-13T12:14:45.368Z,53.00
2022-09-13T12:16:53.965Z,53.83
2022-09-13T12:19:20.464Z,54.75
2022-09-13T12:21:26.768Z,53.49
2022-09-13T12:23:42.717Z,53.54
2022-09-13T12:25:58.414Z,53.40
2022-09-13T12:28:20.424Z,53.74
2022-09-13T12:30:25.686Z,54.49
2022-09-13T12:32:29.037Z,53.92
2022-09-13T12:34:35.677Z,54.03
2022-09-13T12:36:50.242Z,55.19
2022-09-13T12:39:10.047Z,53.35
2022-09-13T12:41:44.567Z,54.54
2022-09-13T12:44:04.175Z,52.51
2022-09-13T12:46:24.125Z,53.96
2022-09-13T12:48:55.501Z,54.03
2022-09-13T12:51:38.577Z,52.51
2022-09-13T12:54:09.560Z,51.36
2022-09-13T12:56:22.718Z,52.26
2022-09-13T12:59:04.684Z,53.49
2022-09-13T13:01:24.735Z,52.93
2022-09-13T13:03:31.617Z,52.72
2022-09-13T13:05:41.573Z,52.05
2022-09-13T13:07:49.749Z,52.53
2022-09-13T13:09:53.803Z,52.36
2022-09-13T13:11:57.866Z,51.18
2022-09-13T13:14:09.275Z,51.57
2022-09-13T13:16:24.700Z,53.13
2022-09-13T13:18:49.106Z,52.64
2022-09-13T13:20:53.625Z,51.19
2022-09-13T13:23:18.411Z,50.90
2022-09-13T13:25:54.597Z,50.68
2022-09-13T13:27:56.203Z,50.42
2022-09-13T13:30:40.969Z,50.49
2022-09-13T13:33:14.714Z,50.86
2022-09-13T13:35:30.304Z,51.59
2022-09-13T13:37:35.363Z,50.95
2022-09-13T13:39:40.818Z,50.95
2022-09-13T13:41:55.989Z,51.07
2022-09-13T13:43:57.422Z,50.50
2022-09-13T13:46:21.551Z,50.82
2022-09-13T13:48:38.878Z,51.09
2022-09-13T13:51:14.608Z,52.40
2022-09-13T13:53:33.044Z,53.07
2022-09-13T13:55:43.353Z,54.25
2022-09-13T13:58:05.781Z,54.02
2022-09-13T14:00:22.396Z,53.21
2022-09-13T14:02:33.529Z,53.46
2022-09-13T14:04:48.562Z,53.73
2022-09-13T14:07:21.312Z,52.87
2022-09-13T14:09:34.586Z,52.61
2022-09-13T14:11:39.273Z,53.63
2022-09-13T14:13:44.244Z,54.03
2022-09-13T14:15:54.514Z,53.96
2022-09-13T14:18:07.875Z,53.53
2022-09-13T14:20:13.301Z,53.38
2022-09-13T14:22:30.864Z,53.44
2022-09-13T14:24:40.033Z,53.98
2022-09-13T14:26:41.614Z,54.56
2022-09-13T14:28:43.291Z,52.20
2022-09-13T14:30:45.455Z,51.59
2022-09-13T14:32:49.549Z,52.02
2022-09-13T14:34:56.868Z,51.59
2022-09-13T14:37:01.921Z,52.67
2022-09-13T14:39:03.738Z,52.53
2022-09-13T14:41:17.594Z,52.83
2022-09-13T14:43:24.220Z,53.72
2022-09-13T14:45:31.006Z,53.35
2022-09-13T14:47:47.078Z,53.05
2022-09-13T14:49:59.191Z,53.24
2022-09-13T14:52:07.067Z,53.63
2022-09-13T14:54:20.329Z,52.77
2022-09-13T14:56:31.663Z,52.80
2022-09-13T14:58:45.460Z,52.98
2022-09-13T15:01:00.673Z,53.27
2022-09-13T15:03:10.829Z,53.34
2022-09-13T15:05:16.023Z,52.63
2022-09-13T15:07:38.645Z,51.17
2022-09-13T15:09:40.115Z,51.48
2022-09-13T15:11:54.102Z,51.78
2022-09-13T15:14:24.013Z,51.85
2022-09-13T15:16:31.628Z,53.32
2022-09-13T15:18:36.777Z,52.94
2022-09-13T15:20:58.980Z,53.32
2022-09-13T15:23:00.433Z,52.96
2022-09-13T15:25:02.630Z,53.15
2022-09-13T15:27:07.435Z,54.72
2022-09-13T15:29:18.693Z,54.27
2022-09-13T15:31:24.798Z,55.12
2022-09-13T15:33:36.832Z,55.62
2022-09-13T15:35:40.638Z,55.97
2022-09-13T15:37:42.104Z,55.87
2022-09-13T15:39:43.526Z,56.32
2022-09-13T15:42:02.752Z,56.61
2022-09-13T15:44:07.213Z,56.32
2022-09-13T15:46:14.355Z,56.45
2022-09-13T15:48:33.684Z,56.57
2022-09-13T15:50:36.968Z,56.10
2022-09-13T15:52:38.409Z,56.49
2022-09-13T15:54:42.052Z,56.87
2022-09-13T15:56:46.722Z,57.62
2022-09-13T15:58:48.797Z,58.77
2022-09-13T16:00:50.336Z,59.03
2022-09-13T16:02:52.141Z,59.66
2022-09-13T16:04:54.518Z,58.96
2022-09-13T16:06:55.945Z,58.31
2022-09-13T16:08:57.511Z,58.21
2022-09-13T16:10:58.936Z,57.62
2022-09-13T16:13:00.345Z,57.74
2022-09-13T16:15:01.778Z,57.91
2022-09-13T16:17:07.448Z,58.82
2022-09-13T16:19:15.320Z,57.86
2022-09-13T16:21:16.862Z,57.98
2022-09-13T16:23:18.288Z,57.90
2022-09-13T16:25:20.094Z,57.96
2022-09-13T16:27:21.586Z,58.23
2022-09-13T16:29:23.049Z,58.54
2022-09-13T16:31:24.604Z,58.95
2022-09-13T16:33:26.134Z,60.08
2022-09-13T16:35:29.718Z,59.62
2022-09-13T16:37:31.160Z,59.81
2022-09-13T16:39:32.594Z,59.58
2022-09-13T16:41:34.077Z,59.33
2022-09-13T16:43:35.532Z,59.81
2022-09-13T16:45:41.391Z,59.57
2022-09-13T16:47:43.076Z,59.82
2022-09-13T16:49:44.636Z,59.86
2022-09-13T16:51:46.104Z,60.77
2022-09-13T16:53:50.911Z,60.81
2022-09-13T16:55:52.346Z,60.81
2022-09-13T16:57:53.880Z,60.58
2022-09-13T16:59:58.418Z,60.88
2022-09-13T17:02:00.125Z,60.90
2022-09-13T17:04:01.937Z,61.07
2022-09-13T17:06:09.412Z,60.85
2022-09-13T17:08:10.878Z,61.28
2022-09-13T17:10:12.660Z,61.37
2022-09-13T17:12:15.013Z,61.36
2022-09-13T17:14:17.749Z,61.19
2022-09-13T17:16:37.812Z,61.21
2022-09-13T17:18:39.329Z,61.52
2022-09-13T17:20:48.821Z,61.83
2022-09-13T17:22:50.268Z,62.00
2022-09-13T17:24:51.714Z,61.82
2022-09-13T17:26:54.008Z,61.93
2022-09-13T17:28:55.472Z,62.28
2022-09-13T17:30:59.451Z,62.37
2022-09-13T17:33:05.876Z,62.21
2022-09-13T17:35:08.458Z,62.21
2022-09-13T17:37:09.869Z,62.09
2022-09-13T17:39:11.902Z,62.31
2022-09-13T17:41:18.673Z,62.51
2022-09-13T17:43:20.086Z,62.48
2022-09-13T17:45:22.476Z,62.09
2022-09-13T17:47:23.900Z,62.12
2022-09-13T17:49:25.412Z,62.02
2022-09-13T17:51:30.890Z,62.00
2022-09-13T17:53:36.844Z,62.25
2022-09-13T17:55:46.626Z,61.92
2022-09-13T17:57:49.826Z,62.12
2022-09-13T17:59:52.267Z,62.43
2022-09-13T18:01:54.625Z,62.49
2022-09-13T18:03:56.243Z,62.56
2022-09-13T18:05:59.720Z,62.71
2022-09-13T18:08:01.334Z,63.15
2022-09-13T18:10:02.977Z,63.29
2022-09-13T18:12:04.443Z,63.10
2022-09-13T18:14:07.006Z,63.25
2022-09-13T18:16:20.258Z,63.18
2022-09-13T18:18:22.586Z,64.07
2022-09-13T18:20:24.337Z,63.97
2022-09-13T18:22:25.876Z,64.08
2022-09-13T18:24:27.343Z,64.48
2022-09-13T18:26:32.403Z,64.70
2022-09-13T18:28:35.078Z,65.07
2022-09-13T18:30:36.480Z,65.32
2022-09-13T18:32:37.996Z,65.58
2022-09-13T18:34:42.066Z,65.77
2022-09-13T18:36:43.505Z,65.77
2022-09-13T18:38:47.278Z,65.86
2022-09-13T18:41:01.437Z,65.62
2022-09-13T18:43:02.858Z,65.54
2022-09-13T18:45:04.632Z,65.63
2022-09-13T18:47:08.264Z,65.87
2022-09-13T18:49:10.440Z,65.96
2022-09-13T18:51:15.098Z,66.17
2022-09-13T18:53:16.535Z,65.93
2022-09-13T18:55:17.936Z,66.07
2022-09-13T18:57:19.397Z,66.29
2022-09-13T18:59:21.175Z,66.54
2022-09-13T19:01:28.603Z,66.62
2022-09-13T19:03:32.059Z,66.75
2022-09-13T19:05:36.265Z,66.67
2022-09-13T19:07:40.205Z,66.84
2022-09-13T19:09:41.767Z,67.31
2022-09-13T19:11:47.694Z,67.06
2022-09-13T19:13:50.494Z,66.52
2022-09-13T19:15:51.995Z,66.34
2022-09-13T19:17:53.460Z,66.56
2022-09-13T19:19:55.806Z,66.65
2022-09-13T19:21:57.410Z,66.55
2022-09-13T19:24:04.069Z,66.52
2022-09-13T19:26:17.124Z,66.18
2022-09-13T19:28:18.524Z,66.08
2022-09-13T19:30:20.057Z,66.26
2022-09-13T19:32:21.758Z,66.11
2022-09-13T19:34:23.830Z,66.53
2022-09-13T19:36:30.797Z,66.45
2022-09-13T19:38:35.109Z,66.36
2022-09-13T19:40:37.925Z,66.40
2022-09-13T19:42:39.437Z,66.54
2022-09-13T19:44:40.908Z,66.58
2022-09-13T19:46:42.978Z,66.49
2022-09-13T19:48:46.573Z,66.70
2022-09-13T19:50:48.161Z,67.12
2022-09-13T19:52:50.107Z,67.20
2022-09-13T19:54:52.562Z,67.35
2022-09-13T19:56:53.990Z,67.64
2022-09-13T19:58:55.583Z,67.98
2022-09-13T20:01:08.877Z,67.66
2022-09-13T20:03:10.355Z,67.60
2022-09-13T20:05:11.818Z,67.65
2022-09-13T20:07:14.312Z,68.07
2022-09-13T20:09:18.105Z,68.20
2022-09-13T20:11:20.826Z,68.02
2022-09-13T20:13:24.042Z,67.94
2022-09-13T20:15:31.159Z,68.22
2022-09-13T20:17:32.655Z,68.06
2022-09-13T20:19:42.545Z,68.07
2022-09-13T20:21:51.815Z,68.16
2022-09-13T20:24:02.888Z,68.50
2022-09-13T20:26:12.460Z,68.93
2022-09-13T20:28:13.897Z,68.85
2022-09-13T20:30:16.012Z,68.83
2022-09-13T20:32:17.436Z,68.69
2022-09-13T20:34:18.973Z,68.89
2022-09-13T20:36:20.404Z,69.03
2022-09-13T20:38:22.222Z,68.98
2022-09-13T20:40:24.898Z,68.97
2022-09-13T20:42:26.424Z,68.90
2022-09-13T20:44:28.172Z,69.10
2022-09-13T20:46:31.517Z,69.29
2022-09-13T20:48:34.111Z,68.94
2022-09-13T20:50:40.124Z,68.85
2022-09-13T20:52:41.623Z,68.77
2022-09-13T20:54:43.171Z,69.04
2022-09-13T20:56:45.766Z,69.04
2022-09-13T20:58:55.034Z,69.28
2022-09-13T21:01:08.435Z,68.93
2022-09-13T21:03:11.149Z,69.27
2022-09-13T21:05:12.756Z,69.25
2022-09-13T21:07:32.786Z,69.18
2022-09-13T21:09:34.237Z,69.58
2022-09-13T21:11:36.775Z,69.93
2022-09-13T21:13:48.003Z,69.88
2022-09-13T21:15:50.196Z,70.12
2022-09-13T21:17:51.630Z,69.90
2022-09-13T21:19:53.225Z,70.39
2022-09-13T21:21:55.337Z,70.56
2022-09-13T21:23:58.319Z,70.52
2022-09-13T21:26:08.041Z,70.29
2022-09-13T21:28:10.850Z,70.57
2022-09-13T21:30:12.366Z,70.54
2022-09-13T21:32:13.845Z,70.29
2022-09-13T21:34:17.806Z,70.54
2022-09-13T21:36:19.243Z,70.60
2022-09-13T21:38:20.725Z,70.48
2022-09-13T21:40:22.289Z,70.49
2022-09-13T21:42:23.758Z,70.44
2022-09-13T21:44:25.704Z,70.20
2022-09-13T21:46:29.782Z,69.98
2022-09-13T21:48:32.884Z,69.62
2022-09-13T21:50:34.315Z,69.94
2022-09-13T21:52:35.765Z,69.62
2022-09-13T21:54:37.176Z,69.59
2022-09-13T21:56:42.062Z,69.78
2022-09-13T21:58:54.968Z,70.30
2022-09-13T22:01:22.491Z,70.15
2022-09-13T22:03:23.985Z,69.41
2022-09-13T22:05:25.419Z,69.90
2022-09-13T22:07:26.910Z,70.00
2022-09-13T22:09:28.422Z,69.63
2022-09-13T22:11:32.121Z,70.23
2022-09-13T22:13:45.264Z,70.04
2022-09-13T22:15:46.730Z,69.98
2022-09-13T22:17:48.172Z,69.59
2022-09-13T22:19:49.647Z,69.92
2022-09-13T22:21:55.433Z,69.72
2022-09-13T22:23:58.322Z,69.62
2022-09-13T22:25:59.810Z,70.19
2022-09-13T22:28:01.438Z,70.29
2022-09-13T22:30:04.710Z,70.43
2022-09-13T22:32:06.187Z,70.68
2022-09-13T22:34:11.380Z,70.93
2022-09-13T22:36:15.342Z,71.28
2022-09-13T22:38:16.748Z,72.69
2022-09-13T22:40:19.103Z,72.04
2022-09-13T22:42:20.974Z,71.24
2022-09-13T22:44:22.446Z,71.10
2022-09-13T22:46:32.955Z,70.79
2022-09-13T22:48:35.290Z,70.36
2022-09-13T22:50:36.720Z,70.42
2022-09-13T22:52:38.148Z,70.04
2022-09-13T22:54:39.573Z,69.75
2022-09-13T22:56:41.389Z,70.28
2022-09-13T22:58:43.426Z,70.64
2022-09-13T23:00:45.966Z,70.78
2022-09-13T23:02:47.555Z,71.94
2022-09-13T23:04:48.964Z,71.63
2022-09-13T23:06:50.422Z,71.30
2022-09-13T23:08:54.470Z,71.69
2022-09-13T23:10:56.200Z,71.60
2022-09-13T23:13:00.465Z,71.85
2022-09-13T23:15:01.889Z,72.69
2022-09-13T23:17:03.406Z,72.27
2022-09-13T23:19:05.232Z,72.61
2022-09-13T23:21:06.802Z,72.72
2022-09-13T23:23:10.625Z,72.84
2022-09-13T23:25:12.469Z,71.58
2022-09-13T23:27:13.885Z,71.71
2022-09-13T23:29:17.955Z,71.39
2022-09-13T23:31:22.180Z,70.80
2022-09-13T23:33:23.657Z,70.49
2022-09-13T23:35:25.968Z,70.56
2022-09-13T23:37:27.395Z,71.17
2022-09-13T23:39:28.859Z,70.72
2022-09-13T23:41:31.760Z,70.79
2022-09-13T23:43:34.113Z,70.04
2022-09-13T23:45:35.627Z,69.76
2022-09-13T23:47:37.078Z,71.13
2022-09-13T23:49:38.564Z,71.24
2022-09-13T23:51:39.996Z,70.54
2022-09-13T23:53:41.970Z,71.17
2022-09-13T23:55:43.411Z,70.88
2022-09-13T23:57:44.873Z,70.42
2022-09-13T23:59:46.300Z,70.22
